INDIA METEOROLOGICAL DEPARTMENT, R.M.C. NEW DELHI
Dated:23 - 1 - 2018
METARS OF ALTERNATE AIRPORTS
Delhi      
VIDP 231330Z 09010KT 1200 R28/P2000 R29/P2000 BR SCT030 BKN100 13/11 Q1009 NOSIG=
Amritsar   
VIAR 231330Z 00000KT 4000 BR SCT035 BKN100 11/09 Q1011 NOSIG=
Lucknow    
VILK 231300Z 00000KT 2000 HZ NSC 19/09 Q1008 NOSIG=
Jaipur     
VIJP 231330Z 29008KT 2500 HZ FEW030 20/M01 Q1010 NOSIG=
Ahmedabad  
VAAH 231330Z 00000KT 4000 FU NSC 22/09 Q1011 NOSIG=
Udaipur    
VAUD 231300Z 04003KT 6000 NSC 21/04 Q1011 NOSIG =
Mumbai     
VABB 231330Z 33011KT 4000 FU NSC 24/13 Q1011 NOSIG=